Time;durP1;ratioP1;P1;durP2;ratioP2;P2;SDS_P1;SDS_P2;PMS_P1;PMS_P2;Temp;Humidity;BMP_temperature;BMP_pressure;BME280_temperature;BME280_humidity;BME280_pressure;Samples;Min_cycle;Max_cycle;Signal;HPM_P1;HPM_P2
2022/03/29 00:00:36;;;;;;;10.00;5.78;;;;;;;;;;4977227;28;20504;-80
2022/03/29 00:03:03;;;;;;;19.23;7.13;;;;;;;;;;4979643;28;20039;-79
2022/03/29 00:05:29;;;;;;;17.35;7.13;;;;;;;;;;4961771;28;20489;-78
2022/03/29 00:07:55;;;;;;;19.42;7.38;;;;;;;;;;4967577;28;20054;-79
2022/03/29 00:10:21;;;;;;;18.10;8.27;;;;;;;;;;4962415;28;20046;-78
2022/03/29 00:12:50;;;;;;;23.08;9.38;;;;;;;;;;4960618;28;20050;-78
2022/03/29 00:15:16;;;;;;;24.92;8.40;;;;;;;;;;4960706;28;20050;-78
2022/03/29 00:17:42;;;;;;;10.93;4.75;;;;;;;;;;4963452;28;20545;-78
2022/03/29 00:20:09;;;;;;;22.83;8.27;;;;;;;;;;4961033;28;20050;-78
2022/03/29 00:22:35;;;;;;;25.73;10.40;;;;;;;;;;4960676;28;20039;-78
2022/03/29 00:25:01;;;;;;;20.00;7.95;;;;;;;;;;4977975;28;20041;-78
2022/03/29 00:27:27;;;;;;;12.10;6.20;;;;;;;;;;4960997;28;20043;-78
2022/03/29 00:29:53;;;;;;;22.63;9.00;;;;;;;;;;4978186;28;20085;-78
2022/03/29 00:32:19;;;;;;;13.70;6.38;;;;;;;;;;4978012;28;20452;-78
2022/03/29 00:34:45;;;;;;;21.05;9.40;;;;;;;;;;4960212;28;20035;-78
2022/03/29 00:37:11;;;;;;;21.63;8.32;;;;;;;;;;4978834;28;20096;-78
2022/03/29 00:39:37;;;;;;;25.48;10.25;;;;;;;;;;4975949;28;20073;-77
2022/03/29 00:42:04;;;;;;;23.92;9.20;;;;;;;;;;4961621;28;20034;-78
2022/03/29 00:44:31;;;;;;;26.95;10.70;;;;;;;;;;4976439;28;20073;-78
2022/03/29 00:46:58;;;;;;;25.90;10.77;;;;;;;;;;4960114;28;20046;-78
2022/03/29 00:49:24;;;;;;;25.88;10.02;;;;;;;;;;4961561;28;20121;-79
2022/03/29 00:51:50;;;;;;;25.95;9.88;;;;;;;;;;4960370;28;20079;-77
2022/03/29 00:54:16;;;;;;;25.27;10.00;;;;;;;;;;4960218;28;20073;-78
2022/03/29 00:56:42;;;;;;;17.45;8.00;;;;;;;;;;4961819;28;20050;-78
2022/03/29 00:59:08;;;;;;;32.03;12.27;;;;;;;;;;4960069;28;20047;-77
2022/03/29 01:01:34;;;;;;;27.50;9.85;;;;;;;;;;4960216;28;20074;-77
2022/03/29 01:04:00;;;;;;;23.63;9.55;;;;;;;;;;4961394;28;20062;-78
2022/03/29 01:06:26;;;;;;;22.67;9.23;;;;;;;;;;4976185;28;20463;-78
2022/03/29 01:08:52;;;;;;;28.20;11.13;;;;;;;;;;4959912;28;20122;-78
2022/03/29 01:11:18;;;;;;;19.17;8.18;;;;;;;;;;4975820;28;20045;-78
2022/03/29 01:13:44;;;;;;;19.25;7.68;;;;;;;;;;4959512;28;20097;-78
2022/03/29 01:18:58;;;;;;;27.17;9.30;;;;;;;;;;5017400;28;20172;-78
2022/03/29 01:21:25;;;;;;;27.83;10.52;;;;;;;;;;4961412;28;20474;-77
2022/03/29 01:23:52;;;;;;;26.27;9.77;;;;;;;;;;4963797;28;20039;-77
2022/03/29 01:26:18;;;;;;;18.90;9.30;;;;;;;;;;4962693;28;20050;-78
2022/03/29 01:28:44;;;;;;;29.70;10.27;;;;;;;;;;4980647;28;20110;-78
2022/03/29 01:31:10;;;;;;;22.00;9.30;;;;;;;;;;4963420;28;20494;-78
2022/03/29 01:33:37;;;;;;;24.92;10.88;;;;;;;;;;4962851;28;20418;-77
2022/03/29 01:36:03;;;;;;;30.02;11.82;;;;;;;;;;4980471;28;20117;-77
2022/03/29 01:38:29;;;;;;;31.38;11.15;;;;;;;;;;4961664;28;20426;-78
2022/03/29 01:41:05;;;;;;;23.98;10.98;;;;;;;;;;4979927;28;20050;-78
2022/03/29 01:43:32;;;;;;;28.92;11.63;;;;;;;;;;4964566;28;20482;-78
2022/03/29 01:45:58;;;;;;;23.67;10.80;;;;;;;;;;4980335;28;20047;-78
2022/03/29 01:48:27;;;;;;;22.58;10.27;;;;;;;;;;4978083;28;20038;-78
2022/03/29 01:50:53;;;;;;;22.88;10.65;;;;;;;;;;4962970;28;20253;-78
2022/03/29 01:53:24;;;;;;;28.30;10.80;;;;;;;;;;4980339;28;20122;-78
2022/03/29 01:55:54;;;;;;;31.25;12.30;;;;;;;;;;4979095;28;20038;-77
2022/03/29 01:58:19;;;;;;;27.00;11.95;;;;;;;;;;4977961;28;20129;-78
2022/03/29 02:00:45;;;;;;;31.25;12.93;;;;;;;;;;4980001;28;20118;-77
2022/03/29 02:03:11;;;;;;;27.65;12.32;;;;;;;;;;4979409;28;20043;-77
2022/03/29 02:05:37;;;;;;;24.80;10.50;;;;;;;;;;4978533;28;20080;-78
2022/03/29 02:08:03;;;;;;;30.52;12.55;;;;;;;;;;4964045;28;20045;-78
2022/03/29 02:10:30;;;;;;;28.63;12.07;;;;;;;;;;4978719;28;20563;-77
2022/03/29 02:12:56;;;;;;;28.80;12.30;;;;;;;;;;4978811;28;20077;-78
2022/03/29 02:15:22;;;;;;;31.42;11.80;;;;;;;;;;4979835;28;20043;-77
2022/03/29 02:17:48;;;;;;;26.77;12.02;;;;;;;;;;4978514;28;20047;-78
2022/03/29 02:20:15;;;;;;;28.60;11.98;;;;;;;;;;4978419;28;20054;-77
2022/03/29 02:22:41;;;;;;;31.85;12.00;;;;;;;;;;4963809;28;20074;-78
2022/03/29 02:25:07;;;;;;;30.02;12.10;;;;;;;;;;4962237;28;20042;-78
2022/03/29 02:27:33;;;;;;;35.30;12.68;;;;;;;;;;4962599;28;20042;-77
2022/03/29 02:29:59;;;;;;;33.42;12.98;;;;;;;;;;4979906;28;20136;-78
2022/03/29 02:32:25;;;;;;;24.63;11.05;;;;;;;;;;4960890;28;20081;-78
2022/03/29 02:34:51;;;;;;;35.65;13.18;;;;;;;;;;4978619;28;20471;-78
2022/03/29 02:37:17;;;;;;;29.88;12.50;;;;;;;;;;4961849;28;20042;-78
2022/03/29 02:39:43;;;;;;;29.08;9.43;;;;;;;;;;4979439;28;20091;-78
2022/03/29 02:42:09;;;;;;;31.10;13.02;;;;;;;;;;4978228;28;20463;-79
2022/03/29 02:44:35;;;;;;;24.90;9.57;;;;;;;;;;4978296;28;20030;-78
2022/03/29 02:47:01;;;;;;;31.70;11.82;;;;;;;;;;4963420;28;20517;-79
2022/03/29 02:49:27;;;;;;;28.27;11.65;;;;;;;;;;4962091;28;20054;-79
2022/03/29 02:51:53;;;;;;;25.90;10.57;;;;;;;;;;4978215;28;20077;-79
2022/03/29 02:54:19;;;;;;;24.98;10.43;;;;;;;;;;4963329;28;20047;-79
2022/03/29 02:56:46;;;;;;;25.77;10.68;;;;;;;;;;4977433;28;20039;-78
2022/03/29 02:59:12;;;;;;;30.10;11.95;;;;;;;;;;4978316;28;20088;-78
2022/03/29 03:01:38;;;;;;;27.67;12.30;;;;;;;;;;4963048;28;20387;-78
2022/03/29 03:04:04;;;;;;;33.58;12.68;;;;;;;;;;4961037;28;20035;-79
2022/03/29 03:06:30;;;;;;;31.75;12.02;;;;;;;;;;4962406;28;20073;-79
2022/03/29 03:08:56;;;;;;;18.77;8.55;;;;;;;;;;4978814;28;20070;-78
2022/03/29 03:11:22;;;;;;;34.80;13.15;;;;;;;;;;4976980;28;20066;-78
2022/03/29 03:13:48;;;;;;;28.35;11.07;;;;;;;;;;4962420;28;20038;-78
2022/03/29 03:16:14;;;;;;;32.40;11.68;;;;;;;;;;4962571;28;20038;-78
2022/03/29 03:18:40;;;;;;;33.70;12.73;;;;;;;;;;4976994;28;20563;-78
2022/03/29 03:21:06;;;;;;;30.60;12.52;;;;;;;;;;4962884;28;20087;-79
2022/03/29 03:23:32;;;;;;;28.00;13.02;;;;;;;;;;4962167;28;20043;-78
2022/03/29 03:25:58;;;;;;;35.38;12.27;;;;;;;;;;4961068;28;20046;-78
2022/03/29 03:28:24;;;;;;;26.52;11.63;;;;;;;;;;4962769;28;20062;-78
2022/03/29 03:30:53;;;;;;;36.78;12.23;;;;;;;;;;4961446;28;20074;-78
2022/03/29 03:33:19;;;;;;;26.55;12.05;;;;;;;;;;4960944;28;20372;-78
2022/03/29 03:35:45;;;;;;;25.58;10.55;;;;;;;;;;4962611;28;20078;-77
2022/03/29 03:38:11;;;;;;;34.90;13.05;;;;;;;;;;4975928;28;20076;-78
2022/03/29 03:40:37;;;;;;;36.53;13.60;;;;;;;;;;4961902;28;20082;-78
2022/03/29 03:43:04;;;;;;;27.42;12.50;;;;;;;;;;4976684;28;20035;-78
2022/03/29 03:45:30;;;;;;;23.70;8.43;;;;;;;;;;4961393;28;20493;-78
2022/03/29 03:47:56;;;;;;;23.02;9.68;;;;;;;;;;4959898;28;20045;-77
2022/03/29 03:50:22;;;;;;;25.25;11.07;;;;;;;;;;4962601;28;20042;-78
2022/03/29 03:52:49;;;;;;;27.83;10.02;;;;;;;;;;4961239;28;20058;-77
2022/03/29 03:55:15;;;;;;;28.25;11.73;;;;;;;;;;4977102;28;20046;-78
2022/03/29 03:57:41;;;;;;;27.92;12.23;;;;;;;;;;4978342;28;20129;-78
2022/03/29 04:00:07;;;;;;;25.42;10.43;;;;;;;;;;4960796;28;20125;-78
2022/03/29 04:02:34;;;;;;;31.23;11.77;;;;;;;;;;4962976;28;20038;-77
2022/03/29 04:05:00;;;;;;;32.35;12.00;;;;;;;;;;4976271;28;20458;-78
2022/03/29 04:07:25;;;;;;;30.67;11.15;;;;;;;;;;4962109;28;20117;-78
2022/03/29 04:09:52;;;;;;;18.77;8.50;;;;;;;;;;4977142;28;20051;-78
2022/03/29 04:12:19;;;;;;;33.70;12.10;;;;;;;;;;4960347;28;20046;-78
2022/03/29 04:14:45;;;;;;;27.83;11.98;;;;;;;;;;4962036;28;20049;-78
2022/03/29 04:17:11;;;;;;;37.38;13.00;;;;;;;;;;4977295;28;20657;-78
2022/03/29 04:19:37;;;;;;;31.38;13.10;;;;;;;;;;4960411;28;20054;-78
2022/03/29 04:22:03;;;;;;;34.97;12.43;;;;;;;;;;4962072;28;20039;-77
2022/03/29 04:24:29;;;;;;;33.45;14.00;;;;;;;;;;4976824;28;20104;-78
2022/03/29 04:26:56;;;;;;;26.58;9.88;;;;;;;;;;4976745;28;20038;-78
2022/03/29 04:29:22;;;;;;;20.30;10.88;;;;;;;;;;4962027;28;20091;-77
2022/03/29 04:31:49;;;;;;;31.05;12.48;;;;;;;;;;4976881;28;20085;-78
2022/03/29 04:34:15;;;;;;;30.90;11.55;;;;;;;;;;4976891;28;20490;-77
2022/03/29 04:36:41;;;;;;;31.10;11.65;;;;;;;;;;4978269;28;20046;-78
2022/03/29 04:39:07;;;;;;;31.17;13.80;;;;;;;;;;4976455;28;20058;-77
2022/03/29 04:41:34;;;;;;;37.80;11.27;;;;;;;;;;4976639;28;20398;-77
2022/03/29 04:44:00;;;;;;;38.20;12.48;;;;;;;;;;4961442;28;20456;-77
2022/03/29 04:46:27;;;;;;;29.38;12.32;;;;;;;;;;4975746;28;20039;-77
2022/03/29 04:48:53;;;;;;;38.17;12.25;;;;;;;;;;4960613;28;20046;-77
2022/03/29 04:51:19;;;;;;;33.40;11.98;;;;;;;;;;4961748;28;20574;-78
2022/03/29 04:53:45;;;;;;;35.20;12.80;;;;;;;;;;4958966;28;20031;-77
2022/03/29 04:56:12;;;;;;;35.88;13.38;;;;;;;;;;4961470;28;20495;-78
2022/03/29 04:58:38;;;;;;;28.20;10.93;;;;;;;;;;4979256;28;20091;-78
2022/03/29 05:01:04;;;;;;;27.35;10.68;;;;;;;;;;4964884;28;20519;-78
2022/03/29 05:03:31;;;;;;;27.42;11.80;;;;;;;;;;4963443;28;20035;-77
2022/03/29 05:05:57;;;;;;;36.92;12.95;;;;;;;;;;4963216;28;20081;-78
2022/03/29 05:08:23;;;;;;;34.10;11.50;;;;;;;;;;4964702;28;20116;-78
2022/03/29 05:10:49;;;;;;;28.45;12.48;;;;;;;;;;4979519;28;20513;-78
2022/03/29 05:13:18;;;;;;;35.15;12.85;;;;;;;;;;4979533;28;20507;-78
2022/03/29 05:15:45;;;;;;;30.92;10.45;;;;;;;;;;4964794;28;20036;-78
2022/03/29 05:18:11;;;;;;;35.78;13.30;;;;;;;;;;4963350;28;20039;-77
2022/03/29 05:20:37;;;;;;;28.40;12.27;;;;;;;;;;4962987;28;20518;-78
2022/03/29 05:23:06;;;;;;;32.65;13.70;;;;;;;;;;4964600;28;20246;-78
2022/03/29 05:25:33;;;;;;;37.25;13.00;;;;;;;;;;4963718;28;20046;-77
2022/03/29 05:27:59;;;;;;;28.83;12.32;;;;;;;;;;4978744;28;20046;-78
2022/03/29 05:30:25;;;;;;;32.60;11.57;;;;;;;;;;4980869;28;20560;-78
2022/03/29 05:32:57;;;;;;;28.08;11.68;;;;;;;;;;4963284;28;20070;-78
2022/03/29 05:35:25;;;;;;;26.67;12.18;;;;;;;;;;4978856;28;20046;-78
2022/03/29 05:37:51;;;;;;;33.25;12.18;;;;;;;;;;4963684;28;20443;-78
2022/03/29 05:40:17;;;;;;;30.33;12.13;;;;;;;;;;4963941;28;20421;-78
2022/03/29 05:42:44;;;;;;;34.75;12.45;;;;;;;;;;4962080;28;20502;-78
2022/03/29 05:45:11;;;;;;;37.72;14.23;;;;;;;;;;4978304;28;20560;-78
2022/03/29 05:50:23;;;;;;;30.35;12.27;;;;;;;;;;4977997;28;20047;-78
2022/03/29 05:52:49;;;;;;;35.22;13.48;;;;;;;;;;4963771;28;20038;-78
2022/03/29 05:55:15;;;;;;;30.80;13.00;;;;;;;;;;4963522;28;20534;-78
2022/03/29 05:57:41;;;;;;;35.08;13.35;;;;;;;;;;4962175;28;20053;-78
2022/03/29 06:00:11;;;;;;;34.28;13.18;;;;;;;;;;4964687;28;20042;-77
2022/03/29 06:02:38;;;;;;;34.05;12.27;;;;;;;;;;4981040;28;20039;-77
2022/03/29 06:05:04;;;;;;;38.20;13.98;;;;;;;;;;4976728;28;20494;-77
2022/03/29 06:07:30;;;;;;;34.10;12.27;;;;;;;;;;4978644;28;20038;-78
2022/03/29 06:09:56;;;;;;;33.60;12.60;;;;;;;;;;4978515;28;20269;-77
2022/03/29 06:12:22;;;;;;;34.65;13.68;;;;;;;;;;4963745;28;20038;-78
2022/03/29 06:14:49;;;;;;;31.95;12.27;;;;;;;;;;4961317;28;20476;-78
2022/03/29 06:17:15;;;;;;;36.20;13.98;;;;;;;;;;4979151;28;20053;-77
2022/03/29 06:19:42;;;;;;;30.73;11.52;;;;;;;;;;4977864;28;20063;-78
2022/03/29 06:22:07;;;;;;;36.13;14.15;;;;;;;;;;4963449;28;20080;-78
2022/03/29 06:24:33;;;;;;;34.40;13.43;;;;;;;;;;4962491;28;20089;-77
2022/03/29 06:26:59;;;;;;;34.78;12.30;;;;;;;;;;4978187;28;20034;-78
2022/03/29 06:29:26;;;;;;;35.50;12.98;;;;;;;;;;4963987;28;20070;-77
2022/03/29 06:31:52;;;;;;;33.10;12.85;;;;;;;;;;4979171;28;20050;-78
2022/03/29 06:34:18;;;;;;;35.08;14.13;;;;;;;;;;4978663;28;20498;-77
2022/03/29 06:36:44;;;;;;;32.05;12.40;;;;;;;;;;4980006;28;20045;-78
2022/03/29 06:39:12;;;;;;;28.95;12.90;;;;;;;;;;4962322;28;20567;-78
2022/03/29 06:41:38;;;;;;;34.05;13.10;;;;;;;;;;4961643;28;20557;-78
2022/03/29 06:44:07;;;;;;;28.85;11.40;;;;;;;;;;4960409;28;20161;-77
2022/03/29 06:46:34;;;;;;;37.30;13.55;;;;;;;;;;4959283;28;20462;-78
2022/03/29 06:49:02;;;;;;;29.95;12.32;;;;;;;;;;4957934;28;20479;-77
2022/03/29 06:51:28;;;;;;;39.47;13.43;;;;;;;;;;4976739;28;20365;-78
2022/03/29 06:53:54;;;;;;;37.33;13.57;;;;;;;;;;4961074;28;20133;-78
2022/03/29 06:56:20;;;;;;;35.63;13.27;;;;;;;;;;4976395;28;20034;-78
2022/03/29 06:58:46;;;;;;;24.40;12.35;;;;;;;;;;4958796;28;20038;-77
2022/03/29 07:01:13;;;;;;;31.45;13.88;;;;;;;;;;4974337;28;20043;-78
2022/03/29 07:03:39;;;;;;;31.48;13.48;;;;;;;;;;4959839;28;20126;-77
2022/03/29 07:06:05;;;;;;;33.88;13.60;;;;;;;;;;4974471;28;20096;-78
2022/03/29 07:08:32;;;;;;;32.20;13.35;;;;;;;;;;4958536;28;20038;-77
2022/03/29 07:11:17;;;;;;;35.28;13.27;;;;;;;;;;4976183;28;20053;-77
2022/03/29 07:13:46;;;;;;;34.85;11.95;;;;;;;;;;4973730;28;20043;-78
2022/03/29 07:16:14;;;;;;;31.08;12.63;;;;;;;;;;4958322;28;20119;-77
2022/03/29 07:18:41;;;;;;;31.00;13.40;;;;;;;;;;4976363;28;20076;-78
2022/03/29 07:21:07;;;;;;;35.97;13.20;;;;;;;;;;4956880;28;20054;-77
2022/03/29 07:23:33;;;;;;;30.60;12.55;;;;;;;;;;4973670;28;20450;-77
2022/03/29 07:25:59;;;;;;;36.42;13.63;;;;;;;;;;4959368;28;20513;-77
2022/03/29 07:28:25;;;;;;;33.47;12.43;;;;;;;;;;4975353;28;20042;-78
2022/03/29 07:30:51;;;;;;;32.67;13.05;;;;;;;;;;4956955;28;20042;-78
2022/03/29 07:33:18;;;;;;;31.40;13.93;;;;;;;;;;4975313;28;20042;-78
2022/03/29 07:35:44;;;;;;;34.05;12.20;;;;;;;;;;4957708;28;20125;-78
2022/03/29 07:38:10;;;;;;;28.85;12.10;;;;;;;;;;4958341;28;20046;-78
2022/03/29 07:40:37;;;;;;;33.78;13.40;;;;;;;;;;4974920;28;20049;-77
2022/03/29 07:43:04;;;;;;;38.30;14.30;;;;;;;;;;4957776;28;20494;-78
2022/03/29 07:45:31;;;;;;;31.10;13.80;;;;;;;;;;4957853;28;20136;-78
2022/03/29 07:47:57;;;;;;;29.60;12.55;;;;;;;;;;4958810;28;20053;-78
2022/03/29 07:50:24;;;;;;;28.25;12.73;;;;;;;;;;4973441;28;20092;-78
2022/03/29 07:52:50;;;;;;;31.38;12.70;;;;;;;;;;4957789;28;20034;-77
2022/03/29 07:55:17;;;;;;;31.27;11.07;;;;;;;;;;4958913;28;20480;-78
2022/03/29 07:57:43;;;;;;;28.15;11.65;;;;;;;;;;4973119;28;20042;-78
2022/03/29 08:02:55;;;;;;;32.10;11.77;;;;;;;;;;4978621;28;20050;-77
2022/03/29 08:05:21;;;;;;;32.83;13.35;;;;;;;;;;4959648;28;20465;-77
2022/03/29 08:07:47;;;;;;;30.50;12.32;;;;;;;;;;4961155;28;20330;-77
2022/03/29 08:10:13;;;;;;;27.35;11.75;;;;;;;;;;4976714;28;20065;-77
2022/03/29 08:12:43;;;;;;;28.80;11.23;;;;;;;;;;4978535;28;20039;-78
2022/03/29 08:15:10;;;;;;;30.90;11.70;;;;;;;;;;4961324;28;20043;-78
2022/03/29 08:17:36;;;;;;;32.22;11.68;;;;;;;;;;4960220;28;20062;-78
2022/03/29 08:20:04;;;;;;;33.88;12.15;;;;;;;;;;4978657;28;20093;-77
2022/03/29 08:22:30;;;;;;;35.42;11.93;;;;;;;;;;4977044;28;20372;-78
2022/03/29 08:24:56;;;;;;;30.90;14.07;;;;;;;;;;4978070;28;20046;-77
2022/03/29 08:27:22;;;;;;;28.88;11.43;;;;;;;;;;4976867;28;20035;-78
2022/03/29 08:29:48;;;;;;;27.42;11.07;;;;;;;;;;4960910;28;20056;-78
2022/03/29 08:32:15;;;;;;;31.20;12.70;;;;;;;;;;4961670;28;20129;-78
2022/03/29 08:34:41;;;;;;;23.83;10.63;;;;;;;;;;4959301;28;20038;-79
2022/03/29 08:37:07;;;;;;;26.58;11.57;;;;;;;;;;4960822;28;20452;-79
2022/03/29 08:39:33;;;;;;;32.40;12.25;;;;;;;;;;4976290;28;20039;-78
2022/03/29 08:42:02;;;;;;;32.15;13.02;;;;;;;;;;4961895;28;20034;-79
2022/03/29 08:44:29;;;;;;;30.65;12.52;;;;;;;;;;4960615;28;20394;-78
2022/03/29 08:46:56;;;;;;;37.13;13.27;;;;;;;;;;4975839;28;21201;-79
2022/03/29 08:49:22;;;;;;;32.42;11.98;;;;;;;;;;4976257;28;20046;-79
2022/03/29 08:51:49;;;;;;;32.75;13.30;;;;;;;;;;4978446;28;20498;-77
2022/03/29 08:54:15;;;;;;;27.52;11.45;;;;;;;;;;4976260;28;20495;-79
2022/03/29 08:56:41;;;;;;;26.10;12.43;;;;;;;;;;4976024;28;20038;-78
2022/03/29 08:59:08;;;;;;;13.32;6.22;;;;;;;;;;4960905;28;20127;-79
2022/03/29 09:01:34;;;;;;;23.52;10.27;;;;;;;;;;4962578;28;20035;-78
2022/03/29 09:04:14;;;;;;;25.55;11.65;;;;;;;;;;4976110;28;20136;-78
2022/03/29 09:07:00;;;;;;;25.17;10.25;;;;;;;;;;4975197;28;20042;-78
2022/03/29 09:09:31;;;;;;;22.33;9.82;;;;;;;;;;4976601;28;20583;-79
2022/03/29 09:11:58;;;;;;;17.20;8.65;;;;;;;;;;4970762;28;20050;-77
2022/03/29 09:14:25;;;;;;;20.42;7.82;;;;;;;;;;4972832;28;20187;-79
2022/03/29 09:16:54;;;;;;;25.30;10.95;;;;;;;;;;4952302;28;20073;-79
2022/03/29 09:19:25;;;;;;;28.60;11.10;;;;;;;;;;4951981;28;20137;-80
2022/03/29 09:21:53;;;;;;;29.80;9.90;;;;;;;;;;4976469;28;20043;-79
2022/03/29 09:24:20;;;;;;;8.80;5.35;;;;;;;;;;4975778;28;20039;-79
2022/03/29 09:26:47;;;;;;;21.30;8.82;;;;;;;;;;4978592;28;20049;-80
2022/03/29 09:29:21;;;;;;;18.20;8.52;;;;;;;;;;4961162;28;20418;-78
2022/03/29 09:32:00;;;;;;;23.80;8.10;;;;;;;;;;4977717;28;20035;-79
2022/03/29 09:34:28;;;;;;;13.85;6.75;;;;;;;;;;4973462;28;20130;-81
2022/03/29 09:36:54;;;;;;;20.25;9.32;;;;;;;;;;4964365;28;20511;-79
2022/03/29 09:39:38;;;;;;;26.05;9.18;;;;;;;;;;4959566;28;20499;-79
2022/03/29 09:42:06;;;;;;;20.50;9.65;;;;;;;;;;4975053;28;20031;-77
2022/03/29 09:44:46;;;;;;;20.58;10.52;;;;;;;;;;4979021;28;20735;-79
2022/03/29 09:47:14;;;;;;;36.47;10.70;;;;;;;;;;4965941;28;20030;-78
2022/03/29 09:49:52;;;;;;;21.75;8.77;;;;;;;;;;4980379;28;20038;-78
2022/03/29 09:52:19;;;;;;;13.48;6.10;;;;;;;;;;4982411;28;20153;-79
2022/03/29 09:55:04;;;;;;;20.13;6.20;;;;;;;;;;4982164;28;20057;-79
2022/03/29 09:57:34;;;;;;;27.17;9.60;;;;;;;;;;4983382;28;20043;-79
2022/03/29 10:00:00;;;;;;;25.83;10.88;;;;;;;;;;4964412;28;20137;-78
2022/03/29 10:02:33;;;;;;;23.77;9.65;;;;;;;;;;4963118;28;20122;-79
2022/03/29 10:04:59;;;;;;;21.55;9.48;;;;;;;;;;4964196;28;20035;-78
2022/03/29 10:07:25;;;;;;;28.08;10.43;;;;;;;;;;4962953;28;20129;-79
2022/03/29 10:09:51;;;;;;;24.23;9.85;;;;;;;;;;4962458;28;20343;-78
2022/03/29 10:12:19;;;;;;;29.40;10.48;;;;;;;;;;4964182;28;20116;-79
2022/03/29 10:14:46;;;;;;;23.27;9.38;;;;;;;;;;4963486;28;20035;-78
2022/03/29 10:17:15;;;;;;;23.05;9.60;;;;;;;;;;4962119;28;20049;-79
2022/03/29 10:19:44;;;;;;;24.92;9.55;;;;;;;;;;4964228;28;20047;-79
2022/03/29 10:22:10;;;;;;;23.48;8.55;;;;;;;;;;4963414;28;20064;-78
2022/03/29 10:24:37;;;;;;;17.98;8.82;;;;;;;;;;4963834;28;20402;-79
2022/03/29 10:27:03;;;;;;;21.05;10.43;;;;;;;;;;4978798;28;20043;-80
2022/03/29 10:29:30;;;;;;;24.23;9.85;;;;;;;;;;4978495;28;20087;-78
2022/03/29 10:31:58;;;;;;;25.15;9.55;;;;;;;;;;4963781;28;20498;-78
2022/03/29 10:34:30;;;;;;;21.85;8.75;;;;;;;;;;4978959;28;20038;-77
2022/03/29 10:37:13;;;;;;;20.88;8.60;;;;;;;;;;4981261;28;20081;-79
2022/03/29 10:39:44;;;;;;;22.45;8.95;;;;;;;;;;4957961;28;20077;-79
2022/03/29 10:42:24;;;;;;;21.65;8.65;;;;;;;;;;4976476;28;20100;-78
2022/03/29 10:45:05;;;;;;;21.55;6.85;;;;;;;;;;4963119;28;20078;-78
2022/03/29 10:47:32;;;;;;;15.45;7.05;;;;;;;;;;4977214;28;20039;-80
2022/03/29 10:49:58;;;;;;;17.58;7.00;;;;;;;;;;4961466;28;20073;-78
2022/03/29 10:52:25;;;;;;;15.25;6.93;;;;;;;;;;4974168;28;20516;-79
2022/03/29 10:54:53;;;;;;;15.23;7.43;;;;;;;;;;4958718;28;20046;-80
2022/03/29 10:57:28;;;;;;;15.27;6.90;;;;;;;;;;4958520;28;20517;-78
2022/03/29 11:00:17;;;;;;;20.83;8.40;;;;;;;;;;4977493;28;20047;-80
2022/03/29 11:03:03;;;;;;;20.15;8.10;;;;;;;;;;4978046;28;20151;-80
2022/03/29 11:05:29;;;;;;;11.32;5.28;;;;;;;;;;4963659;28;20390;-80
2022/03/29 11:07:55;;;;;;;17.17;7.88;;;;;;;;;;4975379;28;20035;-77
2022/03/29 11:10:23;;;;;;;20.30;8.27;;;;;;;;;;4975810;28;20049;-79
2022/03/29 11:12:49;;;;;;;22.33;7.40;;;;;;;;;;4976159;28;20045;-78
2022/03/29 11:15:24;;;;;;;18.67;7.55;;;;;;;;;;4975415;28;20043;-78
2022/03/29 11:17:51;;;;;;;18.92;8.15;;;;;;;;;;4974604;28;20038;-79
2022/03/29 11:20:30;;;;;;;17.23;7.28;;;;;;;;;;4957722;28;20155;-78
2022/03/29 11:22:58;;;;;;;8.88;3.53;;;;;;;;;;4975766;28;20046;-80
2022/03/29 11:25:25;;;;;;;14.48;6.40;;;;;;;;;;4974250;28;20046;-80
2022/03/29 11:27:51;;;;;;;17.50;4.78;;;;;;;;;;4977094;28;20049;-79
2022/03/29 11:30:18;;;;;;;13.70;5.05;;;;;;;;;;4964565;28;20074;-77
2022/03/29 11:32:45;;;;;;;16.10;6.32;;;;;;;;;;4973480;28;20038;-78
2022/03/29 11:35:12;;;;;;;14.02;7.43;;;;;;;;;;4960148;28;20081;-78
2022/03/29 11:37:41;;;;;;;17.08;3.78;;;;;;;;;;4974707;28;20508;-78
2022/03/29 11:40:08;;;;;;;19.75;6.53;;;;;;;;;;4958040;28;20130;-80
2022/03/29 11:42:50;;;;;;;20.00;6.35;;;;;;;;;;4959698;28;20076;-79
2022/03/29 11:45:20;;;;;;;14.68;5.63;;;;;;;;;;4974975;28;20061;-78
2022/03/29 11:47:54;;;;;;;22.90;7.43;;;;;;;;;;4959274;28;20042;-78
2022/03/29 11:50:37;;;;;;;9.10;4.20;;;;;;;;;;4980848;28;20050;-79
2022/03/29 11:53:15;;;;;;;10.00;4.25;;;;;;;;;;4978987;28;20053;-78
2022/03/29 11:55:41;;;;;;;13.25;5.72;;;;;;;;;;4976152;28;20097;-78
2022/03/29 11:58:22;;;;;;;19.85;7.88;;;;;;;;;;4958180;28;20051;-78
2022/03/29 12:00:48;;;;;;;19.95;6.22;;;;;;;;;;4981169;28;20053;-78
2022/03/29 12:03:26;;;;;;;10.88;5.03;;;;;;;;;;4964648;28;20050;-79
2022/03/29 12:06:01;;;;;;;14.85;6.25;;;;;;;;;;4961572;28;20046;-77
2022/03/29 12:08:42;;;;;;;14.65;6.25;;;;;;;;;;4976097;28;20094;-76
2022/03/29 12:11:10;;;;;;;19.42;5.55;;;;;;;;;;4974916;28;20117;-78
2022/03/29 12:13:36;;;;;;;15.73;5.38;;;;;;;;;;4976927;28;20047;-80
2022/03/29 12:16:22;;;;;;;6.90;3.28;;;;;;;;;;4981225;28;20057;-80
2022/03/29 12:18:49;;;;;;;8.07;2.13;;;;;;;;;;4964393;28;20042;-78
2022/03/29 12:21:16;;;;;;;10.32;2.97;;;;;;;;;;4979979;28;20063;-79
2022/03/29 12:23:42;;;;;;;11.05;3.45;;;;;;;;;;4979693;28;20169;-78
2022/03/29 12:26:09;;;;;;;17.58;4.07;;;;;;;;;;4950752;28;20398;-81
2022/03/29 12:28:37;;;;;;;13.98;4.90;;;;;;;;;;4967455;28;20050;-80
2022/03/29 12:31:04;;;;;;;8.13;4.00;;;;;;;;;;4970218;28;20209;-79
2022/03/29 12:33:33;;;;;;;10.43;3.65;;;;;;;;;;4952455;28;20510;-77
2022/03/29 12:36:06;;;;;;;7.68;3.03;;;;;;;;;;4952010;28;20093;-80
2022/03/29 12:38:39;;;;;;;16.90;3.95;;;;;;;;;;4958080;28;20129;-78
2022/03/29 12:41:05;;;;;;;13.65;3.53;;;;;;;;;;4957830;28;20042;-79
2022/03/29 12:43:34;;;;;;;3.97;2.85;;;;;;;;;;4982460;28;20038;-79
2022/03/29 12:46:01;;;;;;;8.85;3.05;;;;;;;;;;4971668;28;20287;-79
2022/03/29 12:48:28;;;;;;;5.55;3.35;;;;;;;;;;4979618;28;20049;-81
2022/03/29 12:50:54;;;;;;;10.55;4.32;;;;;;;;;;4980662;28;20043;-79
2022/03/29 12:53:20;;;;;;;15.15;4.70;;;;;;;;;;4977049;28;20510;-75
2022/03/29 12:55:56;;;;;;;13.07;4.72;;;;;;;;;;4973678;28;20042;-79
2022/03/29 12:58:32;;;;;;;9.27;2.97;;;;;;;;;;4976824;28;20042;-78
2022/03/29 13:00:58;;;;;;;11.50;4.45;;;;;;;;;;4975602;28;20058;-79
2022/03/29 13:03:24;;;;;;;18.15;6.15;;;;;;;;;;4956158;28;20065;-79
2022/03/29 13:05:50;;;;;;;5.72;3.55;;;;;;;;;;4960290;28;20066;-79
2022/03/29 13:08:21;;;;;;;14.93;5.53;;;;;;;;;;4957585;28;20137;-80
2022/03/29 13:10:49;;;;;;;15.67;6.57;;;;;;;;;;4978393;28;20581;-79
2022/03/29 13:13:22;;;;;;;14.18;6.00;;;;;;;;;;4974880;28;20090;-76
2022/03/29 13:15:50;;;;;;;19.27;6.70;;;;;;;;;;4974366;28;20525;-79
2022/03/29 13:18:31;;;;;;;22.77;7.65;;;;;;;;;;4976103;28;20302;-76
2022/03/29 13:21:17;;;;;;;22.48;6.25;;;;;;;;;;4977330;28;20130;-78
2022/03/29 13:23:44;;;;;;;13.15;3.33;;;;;;;;;;4963310;28;20486;-78
2022/03/29 13:26:11;;;;;;;7.18;3.75;;;;;;;;;;4981131;28;20130;-80
2022/03/29 13:28:38;;;;;;;13.63;3.90;;;;;;;;;;4968134;28;20096;-80
2022/03/29 13:31:04;;;;;;;4.93;2.80;;;;;;;;;;4966372;28;20046;-78
2022/03/29 13:33:31;;;;;;;16.48;6.20;;;;;;;;;;4977904;28;20046;-79
2022/03/29 13:35:57;;;;;;;7.78;4.78;;;;;;;;;;4962837;28;20046;-79
2022/03/29 13:38:23;;;;;;;8.88;4.43;;;;;;;;;;4962943;28;20398;-80
2022/03/29 13:40:50;;;;;;;16.00;7.32;;;;;;;;;;4961291;28;20453;-77
2022/03/29 13:43:17;;;;;;;8.45;3.95;;;;;;;;;;4964574;28;20504;-79
2022/03/29 13:46:04;;;;;;;13.27;5.50;;;;;;;;;;4963035;28;20546;-78
2022/03/29 13:48:30;;;;;;;8.65;3.92;;;;;;;;;;4979439;28;20035;-77
2022/03/29 13:50:57;;;;;;;19.80;6.40;;;;;;;;;;4966419;28;20129;-79
2022/03/29 13:53:24;;;;;;;9.23;3.42;;;;;;;;;;4967390;28;20039;-81
2022/03/29 13:55:54;;;;;;;8.15;3.42;;;;;;;;;;4976866;28;20046;-80
2022/03/29 13:58:20;;;;;;;10.73;4.70;;;;;;;;;;4966798;28;20509;-79
2022/03/29 14:00:48;;;;;;;16.88;6.95;;;;;;;;;;4965644;28;20087;-78
2022/03/29 14:03:14;;;;;;;16.00;5.63;;;;;;;;;;4982006;28;20038;-81
2022/03/29 14:05:44;;;;;;;20.10;7.28;;;;;;;;;;4963116;28;20399;-79
2022/03/29 14:08:11;;;;;;;15.95;5.65;;;;;;;;;;4963137;28;20088;-79
2022/03/29 14:10:38;;;;;;;15.63;6.72;;;;;;;;;;4964485;28;20060;-79
2022/03/29 14:13:05;;;;;;;19.02;7.45;;;;;;;;;;4964269;28;20061;-79
2022/03/29 14:15:31;;;;;;;12.13;3.63;;;;;;;;;;4983823;28;20050;-79
2022/03/29 14:17:57;;;;;;;21.13;7.25;;;;;;;;;;4966640;28;20050;-78
2022/03/29 14:20:24;;;;;;;22.80;8.85;;;;;;;;;;4955730;28;20051;-79
2022/03/29 14:22:50;;;;;;;10.68;6.03;;;;;;;;;;4971411;28;20050;-78
2022/03/29 14:25:17;;;;;;;13.57;5.15;;;;;;;;;;4954906;28;20051;-79
2022/03/29 14:27:44;;;;;;;13.35;4.53;;;;;;;;;;4970361;28;20038;-81
2022/03/29 14:30:11;;;;;;;12.80;3.72;;;;;;;;;;4973077;28;20039;-77
2022/03/29 14:32:37;;;;;;;19.85;7.22;;;;;;;;;;4991600;28;20042;-79
2022/03/29 14:35:06;;;;;;;21.10;9.23;;;;;;;;;;4966932;28;20089;-78